Time;durP1;ratioP1;P1;durP2;ratioP2;P2;SDS_P1;SDS_P2;PMS_P1;PMS_P2;Temp;Humidity;BMP_temperature;BMP_pressure;BME280_temperature;BME280_humidity;BME280_pressure;Samples;Min_cycle;Max_cycle;Signal;HPM_P1;HPM_P2
2023/09/13 00:02:13;;;;;;;4.25;3.10;;;;;;;21.61;57.68;95508.22;4838890;29;20189;-88
2023/09/13 00:04:39;;;;;;;3.97;3.00;;;;;;;21.59;57.40;95514.75;4846750;29;20285;-85
2023/09/13 00:07:04;;;;;;;4.57;3.10;;;;;;;21.59;57.74;95498.88;4844759;29;20193;-86
2023/09/13 00:09:30;;;;;;;4.28;2.70;;;;;;;21.73;57.06;95505.66;4830096;29;20275;-86
2023/09/13 00:11:55;;;;;;;3.28;2.97;;;;;;;21.67;57.22;95504.72;4861826;29;20246;-86
2023/09/13 00:14:20;;;;;;;3.97;3.10;;;;;;;21.74;57.07;95502.81;4857535;29;20193;-85
2023/09/13 00:16:46;;;;;;;3.83;3.30;;;;;;;21.61;57.84;95502.13;4843741;29;20205;-86
2023/09/13 00:19:11;;;;;;;3.40;3.05;;;;;;;21.45;58.52;95498.19;4855963;29;20258;-85
2023/09/13 00:21:40;;;;;;;5.95;3.20;;;;;;;21.36;59.77;95510.03;4856020;29;20181;-85
2023/09/13 00:24:06;;;;;;;3.45;2.80;;;;;;;21.48;59.75;95513.63;4853855;29;20205;-85
2023/09/13 00:26:31;;;;;;;3.90;2.95;;;;;;;21.45;59.76;95501.63;4858185;29;20246;-85
2023/09/13 00:28:57;;;;;;;4.15;3.50;;;;;;;21.52;60.66;95500.78;4858020;29;20246;-86
2023/09/13 00:31:23;;;;;;;4.57;3.25;;;;;;;21.58;60.31;95495.44;4888486;29;20232;-86
2023/09/13 00:33:48;;;;;;;3.63;3.05;;;;;;;21.50;60.65;95495.72;4860490;29;20228;-85
2023/09/13 00:36:13;;;;;;;3.25;2.95;;;;;;;21.38;61.28;95492.13;4836753;29;20192;-86
2023/09/13 00:38:39;;;;;;;4.22;3.10;;;;;;;21.34;62.40;95480.41;4850634;29;20284;-85
2023/09/13 00:41:04;;;;;;;4.38;3.40;;;;;;;21.40;62.34;95479.53;4857950;29;20186;-87
2023/09/13 00:43:29;;;;;;;6.13;3.55;;;;;;;21.27;63.00;95479.66;4835368;29;20281;-85
2023/09/13 00:45:55;;;;;;;3.35;3.05;;;;;;;21.31;62.12;95465.00;4845841;29;20250;-86
2023/09/13 00:48:23;;;;;;;3.42;3.10;;;;;;;21.19;61.47;95463.00;4858018;29;20190;-85
2023/09/13 00:50:48;;;;;;;4.63;3.08;;;;;;;21.29;61.51;95467.03;4868093;29;20211;-85
2023/09/13 00:53:14;;;;;;;4.03;3.20;;;;;;;21.16;61.41;95465.28;4849748;29;20213;-86
2023/09/13 00:55:40;;;;;;;3.88;3.10;;;;;;;21.17;61.64;95464.25;4875490;29;20190;-85
2023/09/13 00:58:05;;;;;;;3.65;3.00;;;;;;;21.17;61.33;95465.06;4816897;29;20190;-86
2023/09/13 01:00:32;;;;;;;3.17;2.88;;;;;;;21.19;61.00;95463.00;4845109;29;20182;-86
2023/09/13 01:02:58;;;;;;;3.15;2.85;;;;;;;21.08;61.66;95471.63;4816013;29;20233;-86
2023/09/13 01:05:23;;;;;;;3.58;3.28;;;;;;;21.07;60.87;95470.00;4829871;29;20242;-86
2023/09/13 01:07:48;;;;;;;3.92;2.90;;;;;;;21.13;60.91;95466.53;4864067;29;20196;-86
2023/09/13 01:10:14;;;;;;;4.90;3.13;;;;;;;21.20;61.05;95467.28;4878645;29;20201;-85
2023/09/13 01:12:39;;;;;;;3.08;2.88;;;;;;;21.18;60.98;95471.97;4848229;29;20317;-85
2023/09/13 01:15:09;;;;;;;3.88;3.10;;;;;;;21.16;60.41;95479.28;4819618;29;20285;-87
2023/09/13 01:17:54;;;;;;;3.10;2.67;;;;;;;21.20;60.32;95480.50;4812512;29;20190;-85
2023/09/13 01:20:48;;;;;;;4.38;2.70;;;;;;;21.11;60.25;95481.75;4863715;29;20185;-85
2023/09/13 01:24:04;;;;;;;3.30;2.63;;;;;;;21.13;61.38;95485.00;4845704;29;20209;-86
2023/09/13 01:26:32;;;;;;;3.15;2.60;;;;;;;21.05;61.42;95479.19;4825142;29;20193;-85
2023/09/13 01:28:59;;;;;;;3.75;2.67;;;;;;;21.04;61.88;95488.94;4856963;29;20186;-86
2023/09/13 01:31:25;;;;;;;3.30;3.10;;;;;;;21.02;61.45;95484.88;4846538;29;20201;-85
2023/09/13 01:33:51;;;;;;;3.47;3.15;;;;;;;21.03;61.21;95489.97;4860310;29;20205;-85
2023/09/13 01:36:16;;;;;;;4.22;3.08;;;;;;;21.02;61.39;95485.69;4858559;29;20264;-85
2023/09/13 01:38:41;;;;;;;3.70;3.33;;;;;;;21.05;61.64;95487.91;4850270;29;20229;-85
2023/09/13 01:41:10;;;;;;;4.00;2.95;;;;;;;21.09;60.67;95491.72;4865321;29;20172;-85
2023/09/13 01:43:35;;;;;;;3.30;3.00;;;;;;;21.08;61.15;95484.03;4864299;29;20209;-85
2023/09/13 01:46:01;;;;;;;5.90;2.80;;;;;;;21.02;61.12;95475.13;4869918;29;20225;-85
2023/09/13 01:48:27;;;;;;;3.45;3.15;;;;;;;21.03;60.98;95468.84;4851450;29;20220;-86
2023/09/13 01:50:53;;;;;;;3.42;3.10;;;;;;;21.01;61.31;95470.06;4824160;29;20201;-85
2023/09/13 01:53:18;;;;;;;3.10;2.90;;;;;;;20.91;61.63;95475.81;4854846;29;20684;-84
2023/09/13 01:55:44;;;;;;;3.78;3.35;;;;;;;20.87;61.64;95485.19;4860274;29;20185;-86
2023/09/13 01:58:09;;;;;;;5.20;2.80;;;;;;;20.82;61.79;95474.47;4858496;29;20272;-86
2023/09/13 02:00:35;;;;;;;3.03;2.63;;;;;;;20.69;61.94;95469.28;4847523;29;20317;-85
2023/09/13 02:03:00;;;;;;;3.38;3.05;;;;;;;20.52;62.63;95466.31;4880371;29;20229;-85
2023/09/13 02:05:25;;;;;;;7.43;3.08;;;;;;;20.64;62.22;95454.88;4830035;29;20189;-87
2023/09/13 02:07:51;;;;;;;3.65;3.13;;;;;;;20.61;62.97;95457.94;4867573;29;20188;-85
2023/09/13 02:10:16;;;;;;;3.60;3.30;;;;;;;20.58;62.85;95466.28;4870507;29;20291;-85
2023/09/13 02:12:41;;;;;;;3.88;3.17;;;;;;;20.53;63.36;95466.09;4833850;29;20299;-86
2023/09/13 02:15:07;;;;;;;3.50;3.20;;;;;;;20.57;63.55;95461.19;4848248;29;20182;-85
2023/09/13 02:17:33;;;;;;;3.85;3.40;;;;;;;20.53;63.45;95465.28;4862882;29;20197;-85
2023/09/13 02:19:58;;;;;;;3.10;2.80;;;;;;;20.55;64.04;95465.88;4848997;29;20182;-84
2023/09/13 02:22:23;;;;;;;5.68;3.35;;;;;;;20.56;63.64;95457.75;4822019;29;20226;-87
2023/09/13 02:24:49;;;;;;;3.80;3.50;;;;;;;20.61;63.52;95470.31;4842629;29;20611;-85
2023/09/13 02:27:14;;;;;;;4.10;3.60;;;;;;;20.54;64.03;95467.72;4842286;29;20185;-87
2023/09/13 02:29:40;;;;;;;5.68;3.53;;;;;;;20.47;64.54;95464.31;4834309;29;20193;-84
2023/09/13 02:32:05;;;;;;;4.03;3.60;;;;;;;20.42;64.99;95474.66;4828094;29;20190;-85
2023/09/13 02:34:30;;;;;;;3.58;3.28;;;;;;;20.45;64.96;95468.97;4859964;29;20184;-85
2023/09/13 02:36:56;;;;;;;4.90;3.13;;;;;;;20.29;65.85;95472.88;4859747;29;20184;-85
2023/09/13 02:39:31;;;;;;;3.97;3.58;;;;;;;20.33;65.71;95468.00;4855725;29;20250;-85
2023/09/13 02:41:57;;;;;;;5.80;3.85;;;;;;;20.28;66.41;95471.25;4865942;29;20189;-85
2023/09/13 02:44:22;;;;;;;4.45;3.67;;;;;;;20.31;66.17;95477.94;4859363;29;20189;-85
2023/09/13 02:46:47;;;;;;;3.65;3.35;;;;;;;20.35;66.08;95487.06;4844305;29;20723;-86
2023/09/13 02:49:13;;;;;;;3.63;3.33;;;;;;;20.40;66.46;95496.97;4845816;29;20185;-85
2023/09/13 02:51:38;;;;;;;4.40;3.70;;;;;;;20.21;66.72;95496.84;4872195;29;20217;-95
2023/09/13 02:54:04;;;;;;;3.97;3.58;;;;;;;20.22;66.76;95489.72;4872720;29;20190;-90
2023/09/13 02:56:30;;;;;;;6.70;4.07;;;;;;;20.23;67.16;95488.72;4845828;29;20195;-85
2023/09/13 02:58:55;;;;;;;4.03;3.63;;;;;;;20.17;67.48;95490.38;4858201;29;20196;-86
2023/09/13 03:01:22;;;;;;;6.65;4.15;;;;;;;20.13;68.01;95498.91;4841658;29;20671;-86
2023/09/13 03:03:47;;;;;;;3.85;3.40;;;;;;;20.15;67.89;95494.25;4844763;29;20213;-86
2023/09/13 03:06:13;;;;;;;4.63;4.05;;;;;;;20.12;67.99;95502.56;4841615;29;20666;-85
2023/09/13 03:08:39;;;;;;;4.82;4.28;;;;;;;20.12;67.82;95503.34;4841018;29;20616;-85
2023/09/13 03:11:11;;;;;;;4.35;3.95;;;;;;;20.14;68.37;95503.16;4845883;29;20217;-87
2023/09/13 03:13:37;;;;;;;4.57;3.90;;;;;;;20.12;68.37;95521.00;4859889;29;20208;-85
2023/09/13 03:16:19;;;;;;;4.53;3.78;;;;;;;20.17;68.47;95510.66;4844149;29;20189;-86
2023/09/13 03:18:46;;;;;;;5.47;4.40;;;;;;;20.06;68.76;95512.13;4839322;29;20265;-86
2023/09/13 03:21:12;;;;;;;4.53;4.13;;;;;;;20.10;68.86;95508.03;4826892;29;20177;-85
2023/09/13 03:23:41;;;;;;;5.15;3.92;;;;;;;20.09;69.17;95499.31;4848484;29;20294;-85
2023/09/13 03:26:15;;;;;;;5.10;4.28;;;;;;;20.10;69.03;95500.13;4822082;29;20193;-87
2023/09/13 03:28:43;;;;;;;4.75;4.15;;;;;;;20.01;69.46;95499.53;4843640;29;20194;-85
2023/09/13 03:31:10;;;;;;;6.32;4.50;;;;;;;20.04;69.48;95493.84;4809180;29;20209;-85
2023/09/13 03:33:35;;;;;;;5.47;4.22;;;;;;;19.99;70.37;95491.03;4819832;29;20249;-85
2023/09/13 03:36:02;;;;;;;5.38;3.92;;;;;;;19.97;70.14;95481.72;4851974;29;20206;-88
2023/09/13 03:38:27;;;;;;;5.80;4.50;;;;;;;20.03;70.30;95494.06;4851277;29;20205;-85
2023/09/13 03:40:52;;;;;;;5.00;4.35;;;;;;;20.02;70.35;95480.06;4873241;29;20185;-85
2023/09/13 03:43:18;;;;;;;4.50;4.10;;;;;;;19.88;70.95;95475.88;4824083;29;20302;-85
2023/09/13 03:45:43;;;;;;;5.53;4.18;;;;;;;20.04;70.72;95485.94;4847448;29;20182;-85
2023/09/13 03:48:08;;;;;;;4.82;4.20;;;;;;;20.07;70.52;95490.81;4847550;29;20181;-85
2023/09/13 03:50:34;;;;;;;4.88;4.20;;;;;;;20.00;70.80;95486.56;4824789;29;20246;-85
2023/09/13 03:52:59;;;;;;;5.50;4.53;;;;;;;19.79;71.73;95485.84;4840227;29;20813;-84
2023/09/13 03:55:25;;;;;;;5.45;4.20;;;;;;;19.79;72.14;95487.66;4841314;29;20797;-89
2023/09/13 03:57:50;;;;;;;4.80;4.40;;;;;;;19.88;71.66;95491.69;4856350;29;20652;-85
2023/09/13 04:00:15;;;;;;;5.53;4.97;;;;;;;20.00;71.47;95497.13;4859065;29;20250;-85
2023/09/13 04:02:41;;;;;;;6.00;4.18;;;;;;;19.96;71.23;95488.81;4827917;29;20588;-85
2023/09/13 04:05:07;;;;;;;4.35;3.95;;;;;;;19.89;71.83;95495.94;4858315;29;20192;-85
2023/09/13 04:07:33;;;;;;;4.75;4.35;;;;;;;19.96;71.51;95498.53;4847861;29;20664;-85
2023/09/13 04:09:58;;;;;;;5.25;4.85;;;;;;;19.87;71.82;95500.59;4840545;29;20693;-85
2023/09/13 04:12:24;;;;;;;5.13;4.68;;;;;;;19.99;71.48;95506.06;4828792;29;20229;-86
2023/09/13 04:14:52;;;;;;;5.32;4.80;;;;;;;19.96;71.55;95504.63;4828210;29;20220;-84
2023/09/13 04:17:17;;;;;;;5.05;4.22;;;;;;;20.00;71.24;95512.94;4828267;29;20702;-85
2023/09/13 04:19:43;;;;;;;4.70;4.20;;;;;;;19.90;71.74;95509.94;4825360;29;20193;-84
2023/09/13 04:22:10;;;;;;;4.82;4.30;;;;;;;19.90;71.98;95513.38;4824793;29;20194;-85
2023/09/13 04:24:35;;;;;;;4.80;4.30;;;;;;;19.78;72.23;95505.25;4842135;29;20764;-86
2023/09/13 04:27:00;;;;;;;5.30;4.90;;;;;;;19.83;71.99;95509.13;4868289;29;20217;-85
2023/09/13 04:29:26;;;;;;;5.40;4.68;;;;;;;19.93;71.60;95502.41;4839872;29;20182;-86
2023/09/13 04:31:51;;;;;;;4.45;4.15;;;;;;;19.89;72.03;95506.47;4841580;29;20213;-85
2023/09/13 04:34:16;;;;;;;4.72;4.30;;;;;;;19.95;71.92;95500.38;4826945;29;20224;-85
2023/09/13 04:36:42;;;;;;;6.65;4.60;;;;;;;19.87;72.40;95511.13;4828661;29;20194;-84
2023/09/13 04:39:07;;;;;;;4.55;4.15;;;;;;;19.97;71.81;95505.47;4847548;29;20212;-85
2023/09/13 04:41:32;;;;;;;5.22;4.72;;;;;;;19.90;72.03;95516.00;4866062;29;20669;-86
2023/09/13 04:43:57;;;;;;;5.68;5.18;;;;;;;19.85;73.08;95513.16;4862420;29;20240;-85
2023/09/13 04:46:23;;;;;;;5.07;4.68;;;;;;;19.76;74.08;95530.22;4879300;29;20246;-86
2023/09/13 04:48:48;;;;;;;5.90;4.95;;;;;;;19.69;74.63;95530.22;4855627;29;20258;-87
2023/09/13 04:51:13;;;;;;;5.07;4.68;;;;;;;19.55;75.93;95535.69;4855174;29;20241;-84
2023/09/13 04:53:39;;;;;;;5.10;4.70;;;;;;;19.72;75.51;95532.44;4848047;29;20221;-84
2023/09/13 04:56:04;;;;;;;5.88;5.20;;;;;;;19.77;75.19;95535.25;4844525;29;20251;-85
2023/09/13 04:58:29;;;;;;;5.18;4.68;;;;;;;19.71;75.50;95538.75;4845179;29;20688;-85
2023/09/13 05:00:55;;;;;;;4.65;4.10;;;;;;;19.57;75.91;95541.56;4866505;29;20178;-85
2023/09/13 05:03:20;;;;;;;5.88;4.28;;;;;;;19.74;75.49;95540.94;4856186;29;20670;-84
2023/09/13 05:05:45;;;;;;;4.85;4.38;;;;;;;19.59;75.81;95542.97;4853801;29;20189;-84
2023/09/13 05:08:11;;;;;;;4.38;3.92;;;;;;;19.56;76.55;95539.94;4878764;29;20189;-84
2023/09/13 05:10:39;;;;;;;5.20;4.15;;;;;;;19.75;75.59;95549.66;4848808;29;20204;-86
2023/09/13 05:13:04;;;;;;;4.35;3.95;;;;;;;19.78;75.42;95543.97;4868485;29;20231;-84
2023/09/13 05:15:29;;;;;;;4.55;4.13;;;;;;;19.71;75.97;95545.84;4852200;29;20189;-86
2023/09/13 05:17:55;;;;;;;4.97;4.57;;;;;;;19.80;75.49;95548.06;4842223;29;20243;-85
2023/09/13 05:20:20;;;;;;;5.45;4.63;;;;;;;19.60;76.43;95539.34;4850698;29;20290;-84
2023/09/13 05:22:46;;;;;;;5.25;4.63;;;;;;;19.68;76.37;95547.03;4866594;29;20209;-83
2023/09/13 05:25:11;;;;;;;6.05;5.13;;;;;;;19.68;76.31;95552.31;4851696;29;20200;-84
2023/09/13 05:27:36;;;;;;;4.88;4.15;;;;;;;19.67;76.29;95548.03;4861027;29;20288;-81
2023/09/13 05:30:02;;;;;;;5.15;4.65;;;;;;;19.71;75.93;95541.38;4854517;29;20210;-83
2023/09/13 05:32:27;;;;;;;4.60;4.20;;;;;;;19.69;76.08;95539.94;4871343;29;20247;-83
2023/09/13 05:34:52;;;;;;;4.53;4.10;;;;;;;19.69;76.26;95555.75;4847944;29;20189;-83
2023/09/13 05:37:18;;;;;;;4.53;3.92;;;;;;;19.77;75.35;95558.16;4863191;29;20182;-83
2023/09/13 05:39:43;;;;;;;6.97;4.28;;;;;;;19.51;76.56;95559.75;4843280;29;20245;-83
2023/09/13 05:42:08;;;;;;;5.38;4.80;;;;;;;19.57;76.50;95550.28;4865278;29;20209;-83
2023/09/13 05:44:34;;;;;;;4.28;3.88;;;;;;;19.71;75.80;95559.00;4821218;29;20197;-83
2023/09/13 05:46:59;;;;;;;5.43;4.55;;;;;;;19.81;75.29;95559.41;4851185;29;20567;-82
2023/09/13 05:49:24;;;;;;;6.18;4.20;;;;;;;19.81;75.40;95556.75;4849135;29;20285;-83
2023/09/13 05:51:50;;;;;;;5.95;4.20;;;;;;;19.74;75.46;95566.50;4850047;29;20313;-84
2023/09/13 05:54:15;;;;;;;4.85;4.45;;;;;;;19.73;75.27;95570.94;4852234;29;20221;-82
2023/09/13 05:56:43;;;;;;;4.22;3.83;;;;;;;19.84;75.09;95574.78;4847262;29;20186;-82
2023/09/13 05:59:08;;;;;;;4.70;4.15;;;;;;;19.76;75.50;95577.63;4835201;29;20185;-83
2023/09/13 06:01:34;;;;;;;5.10;4.60;;;;;;;19.80;75.57;95578.84;4856853;29;20193;-83
2023/09/13 06:04:01;;;;;;;5.13;4.70;;;;;;;19.68;75.95;95578.66;4843917;29;20700;-83
2023/09/13 06:06:26;;;;;;;7.07;4.70;;;;;;;19.70;76.03;95578.44;4844399;29;20716;-83
2023/09/13 06:08:51;;;;;;;4.65;4.25;;;;;;;19.74;75.56;95590.19;4849373;29;20194;-83
2023/09/13 06:11:17;;;;;;;5.13;4.25;;;;;;;19.73;75.15;95589.41;4851210;29;20246;-84
2023/09/13 06:13:43;;;;;;;4.72;4.25;;;;;;;19.86;74.98;95598.28;4853111;29;20273;-84
2023/09/13 06:16:08;;;;;;;4.95;4.38;;;;;;;19.80;75.59;95597.31;4861914;29;20186;-84
2023/09/13 06:18:33;;;;;;;5.68;4.53;;;;;;;19.91;74.85;95599.31;4851210;29;20189;-84
2023/09/13 06:20:59;;;;;;;5.32;4.18;;;;;;;19.82;75.22;95603.19;4847668;29;20285;-83
2023/09/13 06:23:39;;;;;;;5.47;4.97;;;;;;;19.76;75.43;95610.06;4848321;29;20213;-82
2023/09/13 06:26:04;;;;;;;5.45;4.95;;;;;;;19.89;75.08;95611.09;4846268;29;20280;-84
2023/09/13 06:28:30;;;;;;;5.43;4.90;;;;;;;19.91;74.77;95614.31;4848247;29;20340;-84
2023/09/13 06:30:57;;;;;;;4.70;4.30;;;;;;;19.91;75.22;95622.22;4857436;29;20233;-86
2023/09/13 06:33:24;;;;;;;5.28;4.65;;;;;;;20.04;75.00;95620.38;4815204;29;20234;-83
2023/09/13 06:35:49;;;;;;;5.20;4.32;;;;;;;20.06;74.37;95623.63;4851830;29;20196;-84
2023/09/13 06:38:15;;;;;;;5.70;4.40;;;;;;;20.01;74.35;95630.53;4850629;29;20209;-84
2023/09/13 06:40:43;;;;;;;5.90;4.80;;;;;;;20.04;74.09;95628.28;4842981;29;20259;-83
2023/09/13 06:43:11;;;;;;;5.95;4.80;;;;;;;20.12;74.50;95623.81;4848790;29;20213;-84
2023/09/13 06:45:37;;;;;;;5.07;4.43;;;;;;;20.15;73.58;95626.06;4845435;29;20190;-84
2023/09/13 06:48:02;;;;;;;5.40;4.40;;;;;;;20.01;74.81;95631.34;4843401;29;20193;-86
2023/09/13 06:50:28;;;;;;;5.38;4.53;;;;;;;20.18;74.23;95631.72;4843871;29;20263;-83
2023/09/13 06:52:53;;;;;;;4.85;4.43;;;;;;;20.21;74.06;95638.41;4847037;29;20210;-84
2023/09/13 06:55:19;;;;;;;5.07;3.58;;;;;;;20.20;74.22;95642.06;4844999;29;20193;-83
2023/09/13 06:57:48;;;;;;;4.97;4.05;;;;;;;20.26;73.41;95630.69;4847180;29;20674;-85
2023/09/13 07:00:13;;;;;;;6.78;4.75;;;;;;;20.14;74.00;95640.22;4820328;29;20615;-84
2023/09/13 07:02:39;;;;;;;4.63;4.10;;;;;;;20.19;73.60;95635.16;4819838;29;20319;-84
2023/09/13 07:05:05;;;;;;;3.90;3.60;;;;;;;20.08;73.91;95644.53;4848904;29;20718;-84
2023/09/13 07:07:30;;;;;;;4.25;3.85;;;;;;;19.94;74.90;95642.88;4847792;29;20291;-84
2023/09/13 07:09:56;;;;;;;4.40;4.00;;;;;;;19.73;75.40;95644.72;4856947;29;20698;-84
2023/09/13 07:12:21;;;;;;;4.50;3.83;;;;;;;20.00;75.56;95647.34;4848568;29;20213;-85
2023/09/13 07:14:46;;;;;;;4.25;3.95;;;;;;;19.97;74.78;95643.31;4846843;29;20208;-85
2023/09/13 07:17:12;;;;;;;4.28;3.88;;;;;;;20.34;73.96;95643.69;4841664;29;20193;-85
2023/09/13 07:19:37;;;;;;;4.35;3.67;;;;;;;20.51;73.42;95650.16;4850779;29;20218;-85
2023/09/13 07:22:03;;;;;;;4.03;3.60;;;;;;;20.55;71.96;95645.28;4863507;29;20233;-85
2023/09/13 07:24:29;;;;;;;3.75;3.45;;;;;;;20.71;72.13;95650.09;4844975;29;20193;-85
2023/09/13 07:26:55;;;;;;;3.53;3.22;;;;;;;20.60;71.99;95653.38;4859718;29;20190;-84
2023/09/13 07:29:20;;;;;;;3.47;3.17;;;;;;;20.58;72.04;95647.47;4838877;29;20185;-85
2023/09/13 07:31:45;;;;;;;3.63;3.33;;;;;;;20.57;72.38;95648.50;4851614;29;20551;-83
2023/09/13 07:34:11;;;;;;;4.00;3.70;;;;;;;20.63;71.26;95651.13;4859851;29;20304;-84
2023/09/13 07:36:37;;;;;;;5.07;3.90;;;;;;;20.69;71.91;95659.25;4853596;29;20197;-85
2023/09/13 07:39:03;;;;;;;3.70;3.05;;;;;;;20.59;71.92;95654.41;4871526;29;20578;-83
2023/09/13 07:41:29;;;;;;;3.60;3.30;;;;;;;20.79;71.95;95656.97;4832333;29;20189;-84
2023/09/13 07:43:54;;;;;;;3.22;3.00;;;;;;;21.08;70.56;95660.91;4854170;29;20700;-84
2023/09/13 07:46:20;;;;;;;3.50;3.20;;;;;;;20.95;70.84;95672.34;4848814;29;20648;-84
2023/09/13 07:48:45;;;;;;;3.83;3.40;;;;;;;20.99;70.96;95665.63;4815888;29;20193;-84
2023/09/13 07:51:10;;;;;;;4.10;3.70;;;;;;;20.92;70.63;95670.13;4849080;29;20221;-84
2023/09/13 07:53:36;;;;;;;3.47;3.10;;;;;;;20.60;71.95;95667.38;4850989;29;20323;-84
2023/09/13 07:56:02;;;;;;;4.85;4.22;;;;;;;20.79;71.90;95678.09;4852816;29;20200;-83
2023/09/13 07:58:28;;;;;;;4.50;3.88;;;;;;;20.48;72.83;95674.28;4851748;29;20200;-84
2023/09/13 08:00:53;;;;;;;4.40;4.00;;;;;;;20.56;72.74;95678.53;4852787;29;20182;-84
2023/09/13 08:03:18;;;;;;;4.68;4.22;;;;;;;20.56;72.50;95674.06;4855098;29;20220;-82
2023/09/13 08:05:46;;;;;;;4.63;4.05;;;;;;;20.58;72.67;95676.50;4852388;29;20217;-82
2023/09/13 08:08:14;;;;;;;5.35;4.72;;;;;;;20.44;73.27;95685.47;4847343;29;20200;-83
2023/09/13 08:10:40;;;;;;;5.25;4.15;;;;;;;20.24;74.13;95681.00;4853250;29;20273;-83
2023/09/13 08:13:06;;;;;;;5.45;4.95;;;;;;;20.36;73.36;95689.91;4851625;29;20707;-81
2023/09/13 08:15:31;;;;;;;6.45;5.13;;;;;;;20.28;74.17;95691.94;4869309;29;20185;-82
2023/09/13 08:17:57;;;;;;;5.85;5.20;;;;;;;20.22;74.53;95698.84;4867037;29;20197;-82
2023/09/13 08:20:22;;;;;;;6.05;5.45;;;;;;;20.26;74.51;95691.34;4846239;29;20672;-81
2023/09/13 08:22:48;;;;;;;6.25;5.65;;;;;;;20.16;74.89;95704.13;4847817;29;20213;-82
2023/09/13 08:25:13;;;;;;;6.97;5.97;;;;;;;20.25;74.43;95697.66;4851994;29;20220;-84
2023/09/13 08:27:38;;;;;;;6.45;5.65;;;;;;;20.36;73.85;95702.28;4854208;29;20477;-83
2023/09/13 08:30:04;;;;;;;6.00;5.40;;;;;;;20.35;73.66;95704.13;4852161;29;20219;-83
2023/09/13 08:32:30;;;;;;;5.53;5.05;;;;;;;20.56;72.95;95697.81;4865587;29;20214;-83
2023/09/13 08:34:55;;;;;;;6.20;5.57;;;;;;;20.73;72.28;95705.31;4846431;29;20869;-82
2023/09/13 08:37:21;;;;;;;5.50;4.75;;;;;;;20.90;71.50;95706.47;4849921;29;20204;-83
2023/09/13 08:39:46;;;;;;;5.70;5.10;;;;;;;20.93;70.79;95706.84;4873206;29;20201;-82
2023/09/13 08:42:13;;;;;;;5.65;5.05;;;;;;;21.23;70.09;95708.19;4869051;29;20189;-82
2023/09/13 08:44:39;;;;;;;5.35;4.85;;;;;;;21.34;69.14;95718.13;4833375;29;20264;-81
2023/09/13 08:47:08;;;;;;;5.63;5.07;;;;;;;21.41;68.33;95716.25;4836513;29;20284;-80
2023/09/13 08:49:35;;;;;;;5.53;4.90;;;;;;;21.42;68.00;95716.06;4855015;29;20582;-80
2023/09/13 08:52:00;;;;;;;5.35;4.85;;;;;;;21.22;68.04;95725.88;4855488;29;21101;-78
2023/09/13 08:54:26;;;;;;;5.53;4.85;;;;;;;21.08;68.92;95722.47;4837144;29;20288;-80
2023/09/13 08:56:52;;;;;;;6.35;5.78;;;;;;;21.12;69.04;95725.50;4863974;29;20221;-81
2023/09/13 08:59:18;;;;;;;6.60;5.15;;;;;;;21.12;68.58;95725.50;4866055;29;20185;-80
2023/09/13 09:01:50;;;;;;;6.32;5.25;;;;;;;20.92;68.76;95728.19;4854751;29;20615;-80
2023/09/13 09:04:20;;;;;;;5.90;4.78;;;;;;;20.98;68.79;95727.38;4855587;29;20218;-80
2023/09/13 09:06:45;;;;;;;5.43;4.93;;;;;;;21.00;68.64;95729.78;4850965;29;20326;-80
2023/09/13 09:09:19;;;;;;;7.68;5.88;;;;;;;20.97;68.95;95733.66;4866346;29;20277;-81
2023/09/13 09:11:58;;;;;;;6.43;5.65;;;;;;;21.03;68.03;95739.97;4850488;29;20248;-80
2023/09/13 09:14:24;;;;;;;7.68;6.45;;;;;;;21.05;68.05;95740.56;4839130;29;20220;-80
2023/09/13 09:16:51;;;;;;;7.10;6.22;;;;;;;21.15;67.57;95739.09;4843643;29;20193;-80
2023/09/13 09:19:16;;;;;;;6.18;5.68;;;;;;;21.30;67.50;95744.16;4843963;29;20200;-80
2023/09/13 09:21:42;;;;;;;6.70;6.00;;;;;;;21.42;66.76;95739.00;4816861;29;20571;-82
2023/09/13 09:24:07;;;;;;;6.00;5.50;;;;;;;21.39;66.49;95747.38;4817694;29;20645;-78
2023/09/13 09:26:32;;;;;;;6.72;5.80;;;;;;;21.37;66.70;95746.75;4854550;29;20178;-81
2023/09/13 09:29:20;;;;;;;7.28;6.55;;;;;;;21.38;67.10;95745.72;4840417;29;20257;-80
2023/09/13 09:31:46;;;;;;;6.53;5.90;;;;;;;21.59;66.17;95745.44;4843821;29;20635;-80
2023/09/13 09:34:12;;;;;;;6.80;5.72;;;;;;;21.77;64.71;95750.00;4848455;29;20221;-80
2023/09/13 09:36:46;;;;;;;6.50;5.85;;;;;;;22.10;64.64;95757.78;4866442;29;20189;-81
2023/09/13 09:39:12;;;;;;;6.65;5.78;;;;;;;22.07;65.12;95758.19;4835929;29;20197;-81
2023/09/13 09:41:38;;;;;;;5.57;5.18;;;;;;;22.13;62.61;95759.97;4861366;29;20209;-81
2023/09/13 09:44:04;;;;;;;5.55;4.97;;;;;;;22.35;62.30;95757.75;4863422;29;20220;-81
2023/09/13 09:46:33;;;;;;;5.57;4.80;;;;;;;22.45;60.23;95754.66;4829713;29;20587;-80
2023/09/13 09:48:59;;;;;;;5.95;5.15;;;;;;;22.50;60.13;95760.91;4851837;29;20285;-81
2023/09/13 09:51:25;;;;;;;5.30;4.80;;;;;;;22.57;60.26;95755.56;4869730;29;20300;-81
2023/09/13 09:53:51;;;;;;;4.72;4.32;;;;;;;22.78;60.54;95760.44;4836760;29;20213;-80
2023/09/13 09:56:16;;;;;;;4.82;4.43;;;;;;;22.53;59.88;95754.38;4848197;29;20198;-81
2023/09/13 09:58:42;;;;;;;4.82;4.40;;;;;;;22.77;58.74;95750.88;4859838;29;20191;-81
2023/09/13 10:01:11;;;;;;;4.65;4.25;;;;;;;22.74;59.99;95753.19;4840861;29;20288;-82
2023/09/13 10:03:37;;;;;;;4.45;4.05;;;;;;;23.33;59.75;95749.13;4858574;29;20623;-81
2023/09/13 10:06:13;;;;;;;4.45;4.05;;;;;;;23.61;57.13;95751.25;4867018;29;20188;-80
2023/09/13 10:08:45;;;;;;;4.15;3.72;;;;;;;23.69;54.17;95743.78;4847387;29;20663;-80
2023/09/13 10:11:13;;;;;;;3.80;3.40;;;;;;;24.11;53.16;95746.44;4853490;29;20216;-81
2023/09/13 10:13:40;;;;;;;4.03;3.63;;;;;;;23.79;55.15;95747.72;4854598;29;20342;-80
2023/09/13 10:16:07;;;;;;;4.40;3.55;;;;;;;23.84;54.44;95751.31;4841209;29;20191;-80
2023/09/13 10:18:48;;;;;;;3.47;3.15;;;;;;;23.82;54.86;95750.72;4811872;29;20197;-80
2023/09/13 10:21:15;;;;;;;3.03;2.83;;;;;;;24.33;53.91;95752.06;4830479;29;20185;-80
2023/09/13 10:23:42;;;;;;;4.28;3.50;;;;;;;23.77;54.34;95750.63;4849075;29;20702;-81
2023/09/13 10:26:14;;;;;;;3.38;3.00;;;;;;;23.90;54.73;95755.72;4822823;29;20197;-81
2023/09/13 10:28:43;;;;;;;3.45;3.15;;;;;;;24.32;53.43;95758.41;4868062;29;20190;-80
2023/09/13 10:31:28;;;;;;;3.83;3.40;;;;;;;24.40;52.96;95755.41;4864961;29;20213;-81
2023/09/13 10:33:56;;;;;;;3.60;3.20;;;;;;;24.20;53.07;95752.22;4831113;29;20234;-80
2023/09/13 10:36:31;;;;;;;4.22;3.75;;;;;;;23.77;54.03;95755.91;4850257;29;20194;-81
2023/09/13 10:39:17;;;;;;;5.30;3.35;;;;;;;23.82;54.16;95750.72;4853140;29;20228;-81
2023/09/13 10:41:54;;;;;;;4.25;3.78;;;;;;;23.46;55.79;95760.34;4857433;29;20265;-80
2023/09/13 10:44:20;;;;;;;4.90;3.55;;;;;;;23.80;53.06;95752.00;4859814;29;20209;-78
2023/09/13 10:46:46;;;;;;;3.72;3.42;;;;;;;23.97;52.47;95748.47;4833717;29;20189;-79
2023/09/13 10:49:11;;;;;;;3.72;3.35;;;;;;;23.67;53.85;95760.94;4852854;29;20197;-76
2023/09/13 10:51:38;;;;;;;3.97;3.60;;;;;;;24.03;53.78;95749.44;4868908;29;20261;-78
2023/09/13 10:54:03;;;;;;;3.55;3.25;;;;;;;24.13;52.87;95754.19;4865805;29;20213;-78
2023/09/13 10:56:32;;;;;;;4.30;3.60;;;;;;;24.06;52.73;95754.28;4847462;29;20476;-85
2023/09/13 10:58:58;;;;;;;3.53;3.22;;;;;;;24.02;52.70;95748.59;4853121;29;20686;-84
2023/09/13 11:01:25;;;;;;;4.13;3.03;;;;;;;23.80;52.36;95755.47;4851172;29;20194;-84
2023/09/13 11:03:50;;;;;;;3.78;3.47;;;;;;;23.96;52.86;95754.84;4844644;29;20771;-84
2023/09/13 11:06:16;;;;;;;4.28;3.92;;;;;;;23.93;52.74;95755.25;4845573;29;20189;-80
2023/09/13 11:08:41;;;;;;;4.18;3.40;;;;;;;23.89;53.17;95756.75;4860591;29;20581;-80
2023/09/13 11:11:18;;;;;;;4.35;3.95;;;;;;;23.67;53.76;95748.47;4849620;29;20221;-81
2023/09/13 11:13:50;;;;;;;5.25;3.25;;;;;;;24.06;53.72;95759.59;4852835;29;20217;-79
2023/09/13 11:16:16;;;;;;;4.22;3.78;;;;;;;24.31;52.92;95756.75;4837921;29;20281;-80
2023/09/13 11:18:52;;;;;;;5.35;3.60;;;;;;;24.35;51.73;95757.94;4857015;29;20182;-80
2023/09/13 11:21:28;;;;;;;3.28;3.03;;;;;;;24.41;50.74;95761.53;4830116;29;20189;-80
2023/09/13 11:23:54;;;;;;;4.15;3.15;;;;;;;24.69;50.59;95760.84;4848822;29;20311;-80
2023/09/13 11:26:46;;;;;;;3.90;3.33;;;;;;;24.62;51.20;95757.50;4822843;29;20636;-80
2023/09/13 11:29:23;;;;;;;3.85;3.22;;;;;;;24.66;51.43;95761.34;4867728;29;20196;-80
2023/09/13 11:31:58;;;;;;;3.83;3.35;;;;;;;24.65;51.71;95762.34;4846995;29;20602;-80
2023/09/13 11:34:24;;;;;;;3.85;3.13;;;;;;;24.41;51.86;95757.03;4846256;29;20545;-80